Etusivu
METAR-TAF:

METAR-TAF

Lentoasemat :

Branch County Memorial Airport

Coldwater, Michigan, Yhdysvallat

Leveyspiiri: 41-56N, Pituuspiiri: 085-03-09W, korkeus merenpinnasta: 292 m

Tämänhetkinen sää

Tämä raportti tehtiin 11 minuuttia sitten, kello 18.35 UTC
Tuuli 5 kn lännestä/lounaasta
Lämpötila 5°C
Kosteus 65%
Ilmanpaine 1009 hPa
Näkyvyys: 16.1 km
Pilvistä 2200 ft:n korkeudessa

METAR: KOEB 191835Z AUTO 25005KT 10SM OVC022 05/M01 A2981 RMK AO2 T00461015

Aika: 13:46 (18:46 UTC)


TAF: puuttuu

Säähavainnot ja -ennusteet yli 4000 lentoasemalta (METAR- ja TAF-raportit).

Käytössä olevat sääasemat on merkitty karttaan keltaisilla ja punaisilla pisteillä.

Aseta hiiri pisteen päälle nähdäksesi sääaseman nimen.

Klikkaa sitten nähdäksesi säähavainnot ja -ennusteet.

Kartan vaihtaminen: klikkaa mustalla rastilla varustettuja vihreitä pisteitä, niin voit zoomata sisään; viivalla varustettua vihreää pistettä, niin voit zoomata ulos tai vihreitä nuolia, niin pääset viereisille kartoille.


METAR-TAF: